Time;durP1;ratioP1;P1;durP2;ratioP2;P2;SDS_P1;SDS_P2;PMS_P1;PMS_P2;Temp;Humidity;BMP_temperature;BMP_pressure;BME280_temperature;BME280_humidity;BME280_pressure;Samples;Min_cycle;Max_cycle;Signal;HPM_P1;HPM_P2
2024/01/21 00:01:29;;;;;;;179.35;167.93;;;-1.30;87.90;;;;;;5061178;28;20052;-77
2024/01/21 00:03:55;;;;;;;102.95;96.78;;;-1.30;88.00;;;;;;5069891;28;20044;-78
2024/01/21 00:06:21;;;;;;;63.03;58.97;;;-1.30;87.80;;;;;;5083341;28;20032;-79
2024/01/21 00:08:47;;;;;;;89.45;84.05;;;-1.30;88.30;;;;;;5077161;28;20040;-78
2024/01/21 00:11:13;;;;;;;85.53;79.77;;;-1.30;88.70;;;;;;5070164;28;20047;-79
2024/01/21 00:13:38;;;;;;;181.67;170.67;;;-1.30;88.40;;;;;;5079939;28;20067;-79
2024/01/21 00:16:04;;;;;;;116.43;109.00;;;-1.40;88.00;;;;;;5060027;28;20119;-79
2024/01/21 00:18:30;;;;;;;66.90;62.80;;;-1.40;89.00;;;;;;5085267;28;20577;-79
2024/01/21 00:20:55;;;;;;;86.53;81.37;;;-1.40;88.10;;;;;;5090875;28;20032;-78
2024/01/21 00:23:21;;;;;;;61.50;57.70;;;-1.40;88.40;;;;;;5075936;28;20051;-78
2024/01/21 00:25:47;;;;;;;67.13;62.90;;;-1.40;88.20;;;;;;5077494;28;20127;-78
2024/01/21 00:28:13;;;;;;;67.90;63.53;;;-1.40;88.00;;;;;;5082468;28;20082;-78
2024/01/21 00:30:38;;;;;;;195.63;183.57;;;-1.40;87.20;;;;;;5075464;28;20040;-79
2024/01/21 00:33:04;;;;;;;76.10;71.53;;;-1.40;87.00;;;;;;5058661;28;20397;-78
2024/01/21 00:35:30;;;;;;;79.43;74.57;;;-1.40;86.80;;;;;;5081319;28;20071;-78
2024/01/21 00:37:55;;;;;;;145.30;136.47;;;-1.40;86.70;;;;;;5057320;28;20059;-78
2024/01/21 00:40:21;;;;;;;77.83;73.23;;;-1.30;86.70;;;;;;5060601;28;20148;-79
2024/01/21 00:42:47;;;;;;;84.23;79.20;;;-1.30;86.10;;;;;;5063050;28;20040;-78
2024/01/21 00:45:12;;;;;;;120.67;113.10;;;-1.30;85.20;;;;;;5060423;28;20080;-78
2024/01/21 00:47:38;;;;;;;132.93;124.60;;;-1.30;85.80;;;;;;5060116;28;21520;-79
2024/01/21 00:50:04;;;;;;;198.53;185.33;;;-1.30;86.20;;;;;;5078378;28;20036;-78
2024/01/21 00:52:30;;;;;;;67.20;63.10;;;-1.30;86.20;;;;;;5073637;28;20040;-78
2024/01/21 00:54:55;;;;;;;80.50;75.70;;;-1.30;86.20;;;;;;5079807;28;20036;-79
2024/01/21 00:57:21;;;;;;;74.13;69.73;;;-1.30;85.70;;;;;;5071072;28;20037;-78
2024/01/21 00:59:47;;;;;;;133.83;126.03;;;-1.40;86.10;;;;;;5071324;28;20040;-78
2024/01/21 01:02:13;;;;;;;96.57;90.73;;;-1.30;86.50;;;;;;5061531;28;20064;-78
2024/01/21 01:04:39;;;;;;;181.03;169.53;;;-1.40;87.10;;;;;;5085664;28;20075;-78
2024/01/21 01:07:05;;;;;;;93.18;87.55;;;-1.30;87.10;;;;;;5058945;28;20140;-78
2024/01/21 01:09:30;;;;;;;79.50;74.87;;;-1.30;86.70;;;;;;5075851;28;20057;-78
2024/01/21 01:11:56;;;;;;;108.83;102.23;;;-1.30;86.10;;;;;;5077622;28;20028;-78
2024/01/21 01:14:22;;;;;;;76.40;72.18;;;-1.30;85.60;;;;;;5060758;28;20105;-78
2024/01/21 01:16:48;;;;;;;69.97;65.77;;;-1.20;85.90;;;;;;5079507;28;20028;-78
2024/01/21 01:19:14;;;;;;;59.67;56.07;;;-1.20;85.10;;;;;;5083179;28;20067;-78
2024/01/21 01:21:39;;;;;;;79.50;74.80;;;-1.20;85.30;;;;;;5073283;28;20052;-78
2024/01/21 01:24:05;;;;;;;106.63;100.27;;;-1.10;84.40;;;;;;5058251;28;20039;-78
2024/01/21 01:26:31;;;;;;;75.72;71.18;;;-1.10;84.40;;;;;;5071536;28;20045;-76
2024/01/21 01:28:58;;;;;;;123.00;115.47;;;-1.10;84.70;;;;;;5077954;28;20040;-75
2024/01/21 01:31:23;;;;;;;129.60;122.10;;;-1.10;84.70;;;;;;5060534;28;20036;-76
2024/01/21 01:33:50;;;;;;;113.60;107.00;;;-1.10;84.40;;;;;;5060392;28;20032;-78
2024/01/21 01:36:15;;;;;;;133.05;125.20;;;-1.10;83.80;;;;;;5063618;28;20406;-79
2024/01/21 01:38:41;;;;;;;104.07;97.93;;;-1.10;82.30;;;;;;5056317;28;20036;-79
2024/01/21 01:41:07;;;;;;;83.87;78.70;;;-1.10;81.80;;;;;;5082697;28;20047;-78
2024/01/21 01:43:33;;;;;;;100.07;94.30;;;-1.10;81.90;;;;;;5067674;28;20410;-78
2024/01/21 01:46:00;;;;;;;132.85;124.75;;;-1.10;81.20;;;;;;5085289;28;20041;-78
2024/01/21 01:48:27;;;;;;;153.43;144.00;;;-1.10;80.30;;;;;;5081920;28;20036;-78
2024/01/21 01:50:54;;;;;;;168.98;158.38;;;-1.10;80.90;;;;;;5072179;28;20443;-78
2024/01/21 01:53:20;;;;;;;187.18;174.30;;;-1.10;79.60;;;;;;5078145;28;20041;-78
2024/01/21 01:55:46;;;;;;;168.63;157.97;;;-1.10;79.00;;;;;;5082150;28;20054;-78
2024/01/21 01:58:15;;;;;;;113.25;106.70;;;-1.10;79.20;;;;;;5066426;28;20516;-78
2024/01/21 02:00:45;;;;;;;77.07;72.28;;;-1.10;79.80;;;;;;5065727;28;20528;-78
2024/01/21 02:03:12;;;;;;;181.93;169.93;;;-1.20;80.80;;;;;;5080790;28;21418;-78
2024/01/21 02:05:37;;;;;;;88.20;83.05;;;-1.20;79.90;;;;;;5080385;28;20032;-78
2024/01/21 02:08:03;;;;;;;263.30;240.80;;;-1.30;79.90;;;;;;5065804;28;20098;-79
2024/01/21 02:10:30;;;;;;;87.22;82.20;;;-1.30;80.60;;;;;;5084500;28;20370;-78
2024/01/21 02:12:56;;;;;;;129.90;121.43;;;-1.40;80.10;;;;;;5065691;28;20060;-78
2024/01/21 02:15:22;;;;;;;58.40;54.78;;;-1.40;80.80;;;;;;5068318;28;20079;-78
2024/01/21 02:17:48;;;;;;;108.83;102.57;;;-1.40;80.90;;;;;;5068779;28;20131;-79
2024/01/21 02:20:14;;;;;;;53.10;49.57;;;-1.50;80.80;;;;;;5068380;28;20405;-79
2024/01/21 02:22:40;;;;;;;83.83;78.70;;;-1.40;80.60;;;;;;5085317;28;20036;-79
2024/01/21 02:25:07;;;;;;;68.50;64.63;;;-1.40;80.30;;;;;;5077885;28;20318;-79
2024/01/21 02:27:33;;;;;;;67.85;63.40;;;-1.40;81.00;;;;;;5077037;28;20102;-78
2024/01/21 02:29:59;;;;;;;41.38;38.75;;;-1.40;80.50;;;;;;5077288;28;20040;-79
2024/01/21 02:32:25;;;;;;;55.13;51.73;;;-1.30;79.90;;;;;;5062650;28;20043;-79
2024/01/21 02:34:51;;;;;;;71.05;67.07;;;-1.30;80.40;;;;;;5062144;28;20092;-79
2024/01/21 02:37:16;;;;;;;55.40;52.17;;;-1.20;80.00;;;;;;5065516;28;20040;-78
2024/01/21 02:39:42;;;;;;;53.30;50.10;;;-1.20;79.80;;;;;;5062614;28;20037;-78
2024/01/21 02:42:08;;;;;;;94.10;88.23;;;-1.20;79.90;;;;;;5066306;28;20492;-79
2024/01/21 02:44:33;;;;;;;79.13;74.80;;;-1.20;79.50;;;;;;5080689;28;20040;-79
2024/01/21 02:46:59;;;;;;;78.93;74.63;;;-1.20;79.40;;;;;;5059940;28;20032;-79
2024/01/21 02:49:28;;;;;;;74.93;70.80;;;-1.20;79.70;;;;;;5076800;28;20081;-79
2024/01/21 02:51:55;;;;;;;75.95;71.35;;;-1.10;78.70;;;;;;5065602;28;20036;-79
2024/01/21 02:54:21;;;;;;;84.00;79.35;;;-1.10;78.30;;;;;;5062703;28;20640;-79
2024/01/21 02:56:47;;;;;;;116.87;110.07;;;-1.10;78.10;;;;;;5060656;28;20036;-79
2024/01/21 02:59:12;;;;;;;98.67;93.00;;;-1.10;78.00;;;;;;5064447;28;20292;-79
2024/01/21 03:01:38;;;;;;;65.20;61.63;;;-1.10;78.40;;;;;;5068315;28;20098;-79
2024/01/21 03:04:04;;;;;;;91.00;86.10;;;-1.00;77.70;;;;;;5080714;28;20404;-80
2024/01/21 03:06:30;;;;;;;157.30;146.40;;;-1.00;76.90;;;;;;5079559;28;20036;-79
2024/01/21 03:08:56;;;;;;;68.43;64.30;;;-1.00;77.10;;;;;;5074856;28;20032;-79
2024/01/21 03:11:21;;;;;;;87.67;82.77;;;-1.00;77.30;;;;;;5065455;28;20064;-79
2024/01/21 03:13:47;;;;;;;168.47;156.37;;;-1.00;77.10;;;;;;5077057;28;20055;-79
2024/01/21 03:16:13;;;;;;;114.43;107.87;;;-1.00;76.80;;;;;;5060480;28;20044;-79
2024/01/21 03:18:38;;;;;;;85.47;80.40;;;-1.00;76.90;;;;;;5067661;28;20044;-80
2024/01/21 03:21:07;;;;;;;97.07;91.70;;;-1.10;77.80;;;;;;5076493;28;20047;-76
2024/01/21 03:23:34;;;;;;;76.70;72.30;;;-1.10;77.50;;;;;;5064465;28;20441;-77
2024/01/21 03:26:00;;;;;;;145.77;136.00;;;-1.10;77.80;;;;;;5079639;28;20124;-77
2024/01/21 03:28:26;;;;;;;91.35;86.20;;;-1.20;77.60;;;;;;5083769;28;20513;-77
2024/01/21 03:30:52;;;;;;;84.38;79.78;;;-1.10;78.00;;;;;;5065095;28;20512;-77
2024/01/21 03:33:18;;;;;;;65.87;61.93;;;-1.20;78.30;;;;;;5080754;28;20078;-77
2024/01/21 03:35:43;;;;;;;66.40;62.63;;;-1.10;78.40;;;;;;5085923;28;20092;-77
2024/01/21 03:38:09;;;;;;;84.87;79.97;;;-1.10;78.00;;;;;;5067741;28;20039;-77
2024/01/21 03:40:35;;;;;;;77.60;73.13;;;-1.10;78.60;;;;;;5078657;28;20517;-77
2024/01/21 03:43:01;;;;;;;67.20;63.50;;;-1.10;77.90;;;;;;5087973;28;20090;-77
2024/01/21 03:45:26;;;;;;;65.40;61.63;;;-1.10;77.70;;;;;;5068127;28;20155;-77
2024/01/21 03:47:52;;;;;;;85.90;81.23;;;-1.00;77.20;;;;;;5078694;28;20036;-78
2024/01/21 03:50:20;;;;;;;58.50;55.17;;;-1.00;77.30;;;;;;5083021;28;20146;-78
2024/01/21 03:52:47;;;;;;;91.53;86.47;;;-1.00;77.60;;;;;;5077508;28;20039;-77
2024/01/21 03:55:18;;;;;;;90.30;85.65;;;-1.00;77.40;;;;;;5077458;28;20036;-77
2024/01/21 03:57:44;;;;;;;85.40;80.30;;;-0.90;77.50;;;;;;5085220;28;20036;-78
2024/01/21 04:00:10;;;;;;;81.65;77.25;;;-0.80;77.50;;;;;;5067963;28;20047;-78
2024/01/21 04:02:37;;;;;;;100.95;95.35;;;-0.80;76.40;;;;;;5064082;28;20474;-78
2024/01/21 04:05:03;;;;;;;131.25;123.35;;;-0.80;76.70;;;;;;5066981;28;20043;-78
2024/01/21 04:07:30;;;;;;;80.28;75.63;;;-0.80;77.60;;;;;;5061875;28;20066;-78
2024/01/21 04:09:55;;;;;;;126.32;118.28;;;-0.70;76.30;;;;;;5079925;28;20029;-78
2024/01/21 04:12:21;;;;;;;101.50;95.70;;;-0.70;76.00;;;;;;5074811;28;20036;-78
2024/01/21 04:14:47;;;;;;;77.97;73.57;;;-0.70;76.40;;;;;;5077464;28;20032;-77
2024/01/21 04:17:13;;;;;;;137.53;128.60;;;-0.60;77.50;;;;;;5060848;28;20083;-78
2024/01/21 04:19:38;;;;;;;35.47;33.27;;;-0.60;76.70;;;;;;5070686;28;20040;-78
2024/01/21 04:22:04;;;;;;;49.03;46.40;;;-0.60;75.50;;;;;;5062165;28;20176;-77
2024/01/21 04:24:30;;;;;;;67.80;64.00;;;-0.60;74.60;;;;;;5060125;28;20051;-78
2024/01/21 04:26:56;;;;;;;72.88;68.97;;;-0.60;74.80;;;;;;5068060;28;20040;-78
2024/01/21 04:29:22;;;;;;;88.97;83.85;;;-0.60;75.00;;;;;;5079677;28;20511;-77
2024/01/21 04:31:48;;;;;;;88.77;83.60;;;-0.60;75.50;;;;;;5082589;28;20068;-77
2024/01/21 04:34:13;;;;;;;79.30;75.03;;;-0.60;75.40;;;;;;5059282;28;20044;-78
2024/01/21 04:36:39;;;;;;;92.23;87.13;;;-0.60;74.90;;;;;;5085035;28;20043;-78
2024/01/21 04:39:08;;;;;;;89.17;84.33;;;-0.60;74.50;;;;;;5076831;28;20410;-77
2024/01/21 04:41:34;;;;;;;59.75;56.63;;;-0.60;74.40;;;;;;5058163;28;20043;-78
2024/01/21 04:44:00;;;;;;;96.47;91.07;;;-0.50;74.30;;;;;;5059159;28;20573;-77
2024/01/21 04:46:26;;;;;;;121.70;114.40;;;-0.50;74.00;;;;;;5075470;28;20072;-77
2024/01/21 04:48:52;;;;;;;64.90;61.50;;;-0.40;74.60;;;;;;5060395;28;20402;-78
2024/01/21 04:51:18;;;;;;;178.10;165.67;;;-0.40;73.80;;;;;;5075644;28;20037;-78
2024/01/21 04:53:44;;;;;;;83.87;79.50;;;-0.30;74.10;;;;;;5079586;28;20621;-78
2024/01/21 04:56:17;;;;;;;164.18;153.77;;;-0.30;74.60;;;;;;5080261;28;20076;-79
2024/01/21 04:58:43;;;;;;;58.97;55.63;;;-0.30;72.90;;;;;;5076260;28;20086;-78
2024/01/21 05:01:09;;;;;;;99.30;93.53;;;-0.20;72.60;;;;;;5059114;28;20037;-77
2024/01/21 05:03:35;;;;;;;86.97;82.28;;;-0.10;72.20;;;;;;5058862;28;20051;-78
2024/01/21 05:06:01;;;;;;;72.43;68.73;;;-0.10;73.50;;;;;;5078571;28;20040;-77
2024/01/21 05:08:26;;;;;;;58.63;55.43;;;-0.10;73.20;;;;;;5059686;28;20032;-78
2024/01/21 05:10:52;;;;;;;54.93;52.13;;;-0.10;72.50;;;;;;5080675;28;20032;-78
2024/01/21 05:13:18;;;;;;;102.70;97.13;;;-0.10;72.20;;;;;;5067073;28;20485;-78
2024/01/21 05:15:45;;;;;;;72.75;68.75;;;-0.10;73.00;;;;;;5066326;28;20555;-78
2024/01/21 05:18:10;;;;;;;118.07;111.07;;;-0.10;72.80;;;;;;5065936;28;20036;-78
2024/01/21 05:20:36;;;;;;;55.23;52.17;;;0.00;73.00;;;;;;5082049;28;20041;-78
2024/01/21 05:23:03;;;;;;;68.83;64.97;;;0.00;72.00;;;;;;5080042;28;20040;-77
2024/01/21 05:25:28;;;;;;;68.82;64.88;;;0.10;72.10;;;;;;5076910;28;20051;-78
2024/01/21 05:27:55;;;;;;;89.57;84.17;;;0.10;72.40;;;;;;5071386;28;20044;-77
2024/01/21 05:30:21;;;;;;;78.20;74.32;;;0.10;71.50;;;;;;5086131;28;20549;-78
2024/01/21 05:32:50;;;;;;;91.68;86.40;;;0.20;70.10;;;;;;5058424;28;20040;-78
2024/01/21 05:35:15;;;;;;;195.93;182.68;;;0.30;70.40;;;;;;5067050;28;20051;-78
2024/01/21 05:37:41;;;;;;;135.50;128.07;;;0.30;69.90;;;;;;5077261;28;20394;-77
2024/01/21 05:40:08;;;;;;;168.90;159.17;;;0.30;70.10;;;;;;5082436;28;20044;-78
2024/01/21 05:42:34;;;;;;;100.13;95.30;;;0.40;69.80;;;;;;5060324;28;20047;-78
2024/01/21 05:44:59;;;;;;;109.80;104.00;;;0.40;69.80;;;;;;5081499;28;20421;-78
2024/01/21 05:47:25;;;;;;;194.77;183.20;;;0.50;69.70;;;;;;5078110;28;20036;-78
2024/01/21 05:49:51;;;;;;;245.40;229.17;;;0.40;69.30;;;;;;5077177;28;20036;-77
2024/01/21 05:52:16;;;;;;;458.97;416.37;;;0.40;68.30;;;;;;5080275;28;20410;-78
2024/01/21 05:54:42;;;;;;;207.33;195.43;;;0.50;68.70;;;;;;5066207;28;20123;-77
2024/01/21 05:57:09;;;;;;;407.27;370.37;;;0.50;68.70;;;;;;5079470;28;20035;-78
2024/01/21 05:59:34;;;;;;;284.70;264.30;;;0.50;69.50;;;;;;5065423;28;20383;-78
2024/01/21 06:02:00;;;;;;;244.77;228.87;;;0.50;70.00;;;;;;5062360;28;20105;-78
2024/01/21 06:04:26;;;;;;;493.27;437.83;;;0.40;69.60;;;;;;5071213;28;20040;-77
2024/01/21 06:06:52;;;;;;;126.17;119.10;;;0.40;69.50;;;;;;5067111;28;20075;-77
2024/01/21 06:09:18;;;;;;;130.57;122.82;;;0.40;70.00;;;;;;5069888;28;20116;-78
2024/01/21 06:11:44;;;;;;;144.00;135.87;;;0.30;70.70;;;;;;5058796;28;20115;-79
2024/01/21 06:14:10;;;;;;;167.55;156.85;;;0.30;70.70;;;;;;5060779;28;20024;-78
2024/01/21 06:16:36;;;;;;;172.20;160.15;;;0.30;69.60;;;;;;5079866;28;20050;-78
2024/01/21 06:19:03;;;;;;;241.95;224.10;;;0.30;70.20;;;;;;5060926;28;20070;-77
2024/01/21 06:21:29;;;;;;;139.45;130.75;;;0.30;70.60;;;;;;5085002;28;20462;-78
2024/01/21 06:23:55;;;;;;;277.45;258.23;;;0.30;70.90;;;;;;5081411;28;20051;-77
2024/01/21 06:26:23;;;;;;;318.13;292.45;;;0.30;71.40;;;;;;5083234;28;20098;-78
2024/01/21 06:28:49;;;;;;;143.10;134.80;;;0.30;71.50;;;;;;5078955;28;20048;-78
2024/01/21 06:31:15;;;;;;;97.13;91.88;;;0.20;71.90;;;;;;5063654;28;20047;-77
2024/01/21 06:33:42;;;;;;;121.20;114.30;;;0.20;72.80;;;;;;5075399;28;20406;-78
2024/01/21 06:36:08;;;;;;;185.07;174.00;;;0.20;72.90;;;;;;5073561;28;20041;-78
2024/01/21 06:38:34;;;;;;;218.77;204.77;;;0.10;73.10;;;;;;5078235;28;20058;-77
2024/01/21 06:41:00;;;;;;;190.27;177.63;;;0.10;73.30;;;;;;5078915;28;20039;-77
2024/01/21 06:43:26;;;;;;;316.95;291.15;;;0.10;73.70;;;;;;5073579;28;20048;-77
2024/01/21 06:45:52;;;;;;;305.25;281.75;;;0.10;74.20;;;;;;5074885;28;20434;-77
2024/01/21 06:48:18;;;;;;;103.73;98.03;;;0.10;74.20;;;;;;5061466;28;20078;-78
2024/01/21 06:50:48;;;;;;;332.85;304.55;;;0.10;74.50;;;;;;5061987;28;20279;-77
2024/01/21 06:53:15;;;;;;;96.25;90.85;;;0.10;74.90;;;;;;5077009;28;20127;-78
2024/01/21 06:55:42;;;;;;;60.72;57.58;;;0.00;75.40;;;;;;5085443;28;20059;-77
2024/01/21 06:58:08;;;;;;;211.80;198.02;;;0.00;75.50;;;;;;5077339;28;20049;-77
2024/01/21 07:00:34;;;;;;;233.03;216.10;;;0.00;75.80;;;;;;5078369;28;20455;-78
2024/01/21 07:02:59;;;;;;;200.37;185.60;;;0.00;76.10;;;;;;5079407;28;20036;-77
2024/01/21 07:05:25;;;;;;;105.07;98.40;;;0.00;75.90;;;;;;5063301;28;20111;-77
2024/01/21 07:07:51;;;;;;;95.07;89.67;;;0.00;76.30;;;;;;5063305;28;20036;-77
2024/01/21 07:10:17;;;;;;;135.23;125.30;;;0.00;76.30;;;;;;5065895;28;20451;-77
2024/01/21 07:12:43;;;;;;;165.63;153.85;;;0.00;75.90;;;;;;5081382;28;20129;-78
2024/01/21 07:15:09;;;;;;;83.00;78.13;;;0.00;76.30;;;;;;5074040;28;20063;-77
2024/01/21 07:17:34;;;;;;;79.55;74.43;;;0.00;76.30;;;;;;5081436;28;20037;-78
2024/01/21 07:20:00;;;;;;;110.13;103.40;;;0.00;76.40;;;;;;5077240;28;20124;-78
2024/01/21 07:22:26;;;;;;;77.50;72.77;;;0.00;76.70;;;;;;5079451;28;20032;-78
2024/01/21 07:24:52;;;;;;;216.80;201.40;;;0.00;76.30;;;;;;5075647;28;20036;-78
2024/01/21 07:27:18;;;;;;;152.45;138.93;;;0.00;76.40;;;;;;5081623;28;20049;-77
2024/01/21 07:29:44;;;;;;;126.47;118.90;;;0.00;76.50;;;;;;5084046;28;20085;-78
2024/01/21 07:32:09;;;;;;;68.07;64.27;;;0.00;76.60;;;;;;5061511;28;20043;-78
2024/01/21 07:34:35;;;;;;;253.03;232.67;;;0.10;76.70;;;;;;5054979;28;20414;-78
2024/01/21 07:37:02;;;;;;;167.20;152.83;;;0.10;77.00;;;;;;5055323;28;20040;-77
2024/01/21 07:39:27;;;;;;;95.50;90.03;;;0.10;76.80;;;;;;5064001;28;20516;-77
2024/01/21 07:41:53;;;;;;;72.13;67.73;;;0.20;76.60;;;;;;5077135;28;20119;-77
2024/01/21 07:44:19;;;;;;;280.40;259.00;;;0.20;76.30;;;;;;5080673;28;20460;-77
2024/01/21 07:46:44;;;;;;;94.00;88.70;;;0.20;76.80;;;;;;5064470;28;20076;-78
2024/01/21 07:49:10;;;;;;;84.70;80.00;;;0.30;76.80;;;;;;5081639;28;20039;-78
2024/01/21 07:51:36;;;;;;;141.90;132.67;;;0.30;76.70;;;;;;5063976;28;20119;-78
2024/01/21 07:54:01;;;;;;;131.77;123.27;;;0.30;76.60;;;;;;5058026;28;20036;-78
2024/01/21 07:56:27;;;;;;;102.20;96.50;;;0.30;77.20;;;;;;5058900;28;20050;-77
2024/01/21 07:58:53;;;;;;;149.13;139.20;;;0.30;77.40;;;;;;5074902;28;20028;-78
2024/01/21 08:01:21;;;;;;;116.83;109.33;;;0.40;78.20;;;;;;5076877;28;20048;-77
2024/01/21 08:03:47;;;;;;;151.80;141.57;;;0.40;78.40;;;;;;5061963;28;20043;-77
2024/01/21 08:06:13;;;;;;;245.75;228.80;;;0.40;79.20;;;;;;5077846;28;20044;-78
2024/01/21 08:08:39;;;;;;;163.53;152.67;;;0.40;79.90;;;;;;5073683;28;20045;-77
2024/01/21 08:11:05;;;;;;;131.20;122.80;;;0.40;79.80;;;;;;5074091;28;20120;-77
2024/01/21 08:13:31;;;;;;;222.13;207.27;;;0.40;80.00;;;;;;5066885;28;20128;-77
2024/01/21 08:15:57;;;;;;;186.77;173.93;;;0.40;79.80;;;;;;5074773;28;20037;-77
2024/01/21 08:18:22;;;;;;;219.27;205.83;;;0.50;79.30;;;;;;5062105;28;20465;-77
2024/01/21 08:20:48;;;;;;;379.70;346.40;;;0.50;79.50;;;;;;5064029;28;20075;-79
2024/01/21 08:23:14;;;;;;;189.43;177.63;;;0.60;79.90;;;;;;5075738;28;20044;-77
2024/01/21 08:25:41;;;;;;;331.23;304.55;;;0.60;80.20;;;;;;5061379;28;20406;-78
2024/01/21 08:28:06;;;;;;;143.40;134.98;;;0.60;80.90;;;;;;5071876;28;20052;-77
2024/01/21 08:30:32;;;;;;;159.17;149.20;;;0.70;80.10;;;;;;5065010;28;20035;-78
2024/01/21 08:32:58;;;;;;;156.83;147.60;;;0.70;79.90;;;;;;5061047;28;20036;-78
2024/01/21 08:35:24;;;;;;;238.33;222.03;;;0.80;80.30;;;;;;5062620;28;20043;-76
2024/01/21 08:37:50;;;;;;;245.57;226.63;;;0.80;80.20;;;;;;5064874;28;20093;-77
2024/01/21 08:40:15;;;;;;;350.60;323.13;;;0.90;80.00;;;;;;5077377;28;20044;-77
2024/01/21 08:42:42;;;;;;;168.90;157.83;;;0.90;79.70;;;;;;5075787;28;20040;-77
2024/01/21 08:45:08;;;;;;;226.52;211.30;;;0.90;79.90;;;;;;5083979;28;20055;-77
2024/01/21 08:47:34;;;;;;;181.30;170.02;;;1.00;79.20;;;;;;5057471;28;20044;-77
2024/01/21 08:50:00;;;;;;;186.75;173.90;;;1.10;79.80;;;;;;5075238;28;20428;-77
2024/01/21 08:52:26;;;;;;;300.00;278.97;;;1.10;79.10;;;;;;5074361;28;20048;-77
2024/01/21 08:54:52;;;;;;;214.03;199.57;;;1.20;78.90;;;;;;5080463;28;20070;-77
2024/01/21 08:57:18;;;;;;;169.43;158.27;;;1.20;79.20;;;;;;5081533;28;20279;-77
2024/01/21 08:59:43;;;;;;;152.87;143.23;;;1.30;78.90;;;;;;5060961;28;20296;-77
2024/01/21 09:02:09;;;;;;;225.70;210.07;;;1.30;78.60;;;;;;5082243;28;20068;-77
2024/01/21 09:04:38;;;;;;;239.73;224.60;;;1.30;78.80;;;;;;5066936;28;20398;-77
2024/01/21 09:07:03;;;;;;;409.90;372.75;;;1.30;78.40;;;;;;5061182;28;20098;-77
2024/01/21 09:09:29;;;;;;;134.13;126.17;;;1.40;78.20;;;;;;5062198;28;20067;-77
2024/01/21 09:11:56;;;;;;;207.07;192.63;;;1.50;79.10;;;;;;5081580;28;20044;-78
2024/01/21 09:14:23;;;;;;;331.35;305.48;;;1.50;78.80;;;;;;5074709;28;20055;-78
2024/01/21 09:16:48;;;;;;;139.05;131.00;;;1.60;78.80;;;;;;5064085;28;20078;-77
2024/01/21 09:19:14;;;;;;;200.67;188.43;;;1.70;79.10;;;;;;5086043;28;20518;-77
2024/01/21 09:21:40;;;;;;;261.53;243.73;;;1.80;79.40;;;;;;5078935;28;20050;-77
2024/01/21 09:24:07;;;;;;;425.50;386.50;;;1.80;79.80;;;;;;5078281;28;20098;-77
2024/01/21 09:26:33;;;;;;;175.13;164.57;;;1.80;79.90;;;;;;5064127;28;20065;-77
2024/01/21 09:28:59;;;;;;;528.00;481.17;;;1.80;80.30;;;;;;5057801;28;20382;-78
2024/01/21 09:31:25;;;;;;;184.73;172.47;;;1.80;80.30;;;;;;5081209;28;20045;-77
2024/01/21 09:33:51;;;;;;;305.80;283.38;;;1.80;80.30;;;;;;5063508;28;20045;-77
2024/01/21 09:36:17;;;;;;;452.80;412.17;;;1.80;80.70;;;;;;5083042;28;20387;-77
2024/01/21 09:38:42;;;;;;;205.07;190.97;;;1.80;80.70;;;;;;5085325;28;20537;-77
2024/01/21 09:41:32;;;;;;;244.63;228.27;;;1.80;81.20;;;;;;5064434;28;20458;-77
2024/01/21 09:43:58;;;;;;;272.25;252.48;;;1.70;81.80;;;;;;5067143;28;20036;-78
2024/01/21 09:46:25;;;;;;;187.00;174.90;;;1.80;82.20;;;;;;5078983;28;20093;-78
2024/01/21 09:48:53;;;;;;;280.67;257.35;;;1.90;82.50;;;;;;5077568;28;20115;-78
2024/01/21 09:51:20;;;;;;;338.77;312.95;;;1.90;82.20;;;;;;5057526;28;20036;-77
2024/01/21 09:53:50;;;;;;;211.77;197.43;;;1.90;82.40;;;;;;5074329;28;20045;-77
2024/01/21 09:56:17;;;;;;;362.35;334.60;;;1.90;82.40;;;;;;5074390;28;20048;-76
2024/01/21 09:58:49;;;;;;;238.25;221.40;;;1.90;82.80;;;;;;5067759;28;20514;-77
2024/01/21 10:01:16;;;;;;;200.48;187.32;;;1.90;83.60;;;;;;5085735;28;20421;-77
2024/01/21 10:03:43;;;;;;;266.08;247.50;;;1.90;83.90;;;;;;5057995;28;20031;-77
2024/01/21 10:06:09;;;;;;;178.57;167.32;;;1.90;84.40;;;;;;5064200;28;20139;-76
2024/01/21 10:08:39;;;;;;;169.00;159.50;;;2.00;84.80;;;;;;5091448;28;20497;-77
2024/01/21 10:11:05;;;;;;;224.10;209.80;;;2.00;85.20;;;;;;5066857;28;20051;-77
2024/01/21 10:13:34;;;;;;;244.57;228.53;;;2.00;85.60;;;;;;5084171;28;20036;-77
2024/01/21 10:16:00;;;;;;;146.85;138.10;;;2.00;86.20;;;;;;5071662;28;20752;-76
2024/01/21 10:18:29;;;;;;;421.13;386.23;;;2.00;86.50;;;;;;5061010;28;20039;-78
2024/01/21 10:20:57;;;;;;;328.38;304.63;;;2.00;87.00;;;;;;5076107;28;20044;-78
2024/01/21 10:23:23;;;;;;;329.17;303.88;;;2.10;87.20;;;;;;5063705;28;20043;-79
2024/01/21 10:25:49;;;;;;;253.37;236.93;;;2.10;87.90;;;;;;5077349;28;20052;-77
2024/01/21 10:28:16;;;;;;;170.43;160.43;;;2.10;88.20;;;;;;5077899;28;20048;-77
2024/01/21 10:30:44;;;;;;;400.45;366.33;;;2.20;88.30;;;;;;5063939;28;20402;-78
2024/01/21 10:33:13;;;;;;;329.58;304.73;;;2.20;88.60;;;;;;5063046;28;20036;-77
2024/01/21 10:35:40;;;;;;;300.50;279.92;;;2.20;89.00;;;;;;5078726;28;20047;-76
2024/01/21 10:38:13;;;;;;;296.58;275.00;;;2.30;89.20;;;;;;5082360;28;20039;-78
2024/01/21 10:40:46;;;;;;;362.08;332.15;;;2.30;89.60;;;;;;5082004;28;20056;-77
2024/01/21 10:43:15;;;;;;;287.67;266.98;;;2.30;89.80;;;;;;5080183;28;20041;-79
2024/01/21 10:45:45;;;;;;;143.50;135.27;;;2.30;90.20;;;;;;5070136;28;20040;-77
2024/01/21 10:48:15;;;;;;;183.40;172.75;;;2.30;90.50;;;;;;5069973;28;20038;-77
2024/01/21 10:50:42;;;;;;;329.75;306.00;;;2.40;90.80;;;;;;5063860;28;20127;-79
2024/01/21 10:53:12;;;;;;;217.63;203.70;;;2.40;90.90;;;;;;5081090;28;20080;-77
2024/01/21 10:55:40;;;;;;;280.85;260.67;;;2.50;91.20;;;;;;5062190;28;20115;-76
2024/01/21 10:58:10;;;;;;;385.38;351.40;;;2.50;91.50;;;;;;5065987;28;20040;-77
2024/01/21 11:00:37;;;;;;;336.45;302.23;;;2.50;91.90;;;;;;5078872;28;20075;-78
2024/01/21 11:03:25;;;;;;;167.00;155.52;;;2.50;92.10;;;;;;5059263;28;20468;-77
2024/01/21 11:05:54;;;;;;;325.77;299.45;;;2.50;92.60;;;;;;5084883;28;20036;-78
2024/01/21 11:08:22;;;;;;;407.40;364.52;;;2.50;93.00;;;;;;5079281;28;20093;-77
2024/01/21 11:10:57;;;;;;;161.85;152.18;;;2.50;93.60;;;;;;5077129;28;20040;-78
2024/01/21 11:13:42;;;;;;;;;;;2.50;94.00;;;;;;5057808;28;20102;-78
2024/01/21 11:16:26;;;;;;;242.82;226.55;;;2.50;94.50;;;;;;5060287;28;19916;-77
2024/01/21 11:18:53;;;;;;;319.10;294.00;;;2.50;95.10;;;;;;5062549;28;20519;-78
2024/01/21 11:21:27;;;;;;;269.35;249.23;;;2.60;95.50;;;;;;5075503;28;20505;-78
2024/01/21 11:24:13;;;;;;;301.83;272.95;;;2.60;95.90;;;;;;5077677;28;20032;-79
2024/01/21 11:26:43;;;;;;;154.82;144.50;;;2.60;96.50;;;;;;5058346;28;20053;-79
2024/01/21 11:29:25;;;;;;;240.35;224.32;;;2.60;97.10;;;;;;5055270;28;20028;-79
2024/01/21 11:32:03;;;;;;;159.80;149.80;;;2.60;97.60;;;;;;5058295;28;20036;-79
2024/01/21 11:34:37;;;;;;;179.63;168.60;;;2.60;98.50;;;;;;5059797;28;20044;-78
2024/01/21 11:37:03;;;;;;;539.00;390.63;;;2.60;99.40;;;;;;5077992;28;20040;-79
2024/01/21 11:39:29;;;;;;;479.52;431.17;;;2.60;99.80;;;;;;5061903;28;20074;-79
2024/01/21 11:41:55;;;;;;;188.63;176.47;;;2.60;99.90;;;;;;5065100;28;20052;-78
2024/01/21 11:44:26;;;;;;;192.27;180.30;;;2.60;99.90;;;;;;5077961;28;20124;-80
2024/01/21 11:46:54;;;;;;;163.25;152.50;;;2.70;99.90;;;;;;5067671;28;20041;-80
2024/01/21 11:49:21;;;;;;;247.07;230.20;;;2.70;99.90;;;;;;5070031;28;20037;-80
2024/01/21 11:51:47;;;;;;;471.45;422.45;;;2.70;99.90;;;;;;5081371;28;20032;-80
2024/01/21 11:54:13;;;;;;;359.83;333.80;;;2.70;99.90;;;;;;5070621;28;20059;-80
2024/01/21 11:56:43;;;;;;;384.00;353.33;;;2.70;99.90;;;;;;5089825;28;20393;-81
2024/01/21 11:59:10;;;;;;;259.52;241.57;;;2.80;99.90;;;;;;5065721;28;20067;-79
2024/01/21 12:01:37;;;;;;;290.45;270.17;;;2.80;99.90;;;;;;5070082;28;20048;-80
2024/01/21 12:04:07;;;;;;;278.65;258.83;;;2.80;99.90;;;;;;5050770;28;20074;-79
2024/01/21 12:06:39;;;;;;;322.77;299.08;;;2.80;99.90;;;;;;5088143;28;20471;-80
2024/01/21 12:09:07;;;;;;;273.73;255.32;;;2.90;99.90;;;;;;5071393;28;20040;-79
2024/01/21 12:11:35;;;;;;;497.20;382.27;;;2.90;99.90;;;;;;5085436;28;20120;-80
2024/01/21 12:14:04;;;;;;;215.88;202.18;;;2.90;99.90;;;;;;5062763;28;20111;-77
2024/01/21 12:16:29;;;;;;;368.30;341.77;;;2.90;99.90;;;;;;5071774;28;20051;-79
2024/01/21 12:18:55;;;;;;;239.67;223.77;;;3.00;99.90;;;;;;5083463;28;20684;-79